sensor_id;sensor_type;location;lat;lon;timestamp;pressure;altitude;pressure_sealevel;temperature
61390;BMP280;47260;48.274;19.814;2022-08-03T00:01:36;99591.25;;;19.30
61390;BMP280;47260;48.274;19.814;2022-08-03T00:04:04;99586.19;;;19.26
61390;BMP280;47260;48.274;19.814;2022-08-03T00:06:31;99582.91;;;19.28
61390;BMP280;47260;48.274;19.814;2022-08-03T00:08:58;99578.38;;;19.30
61390;BMP280;47260;48.274;19.814;2022-08-03T00:11:25;99579.84;;;19.31
61390;BMP280;47260;48.274;19.814;2022-08-03T00:13:52;99573.63;;;19.38
61390;BMP280;47260;48.274;19.814;2022-08-03T00:16:19;99578.34;;;19.38
61390;BMP280;47260;48.274;19.814;2022-08-03T00:18:47;99581.25;;;19.32
61390;BMP280;47260;48.274;19.814;2022-08-03T00:21:13;99571.13;;;19.25
61390;BMP280;47260;48.274;19.814;2022-08-03T00:23:40;99576.03;;;19.19
61390;BMP280;47260;48.274;19.814;2022-08-03T00:26:07;99578.94;;;19.21
61390;BMP280;47260;48.274;19.814;2022-08-03T00:28:34;99569.31;;;19.20
61390;BMP280;47260;48.274;19.814;2022-08-03T00:31:01;99571.13;;;19.18
61390;BMP280;47260;48.274;19.814;2022-08-03T00:33:27;99573.13;;;19.17
61390;BMP280;47260;48.274;19.814;2022-08-03T00:35:55;99573.66;;;19.16
61390;BMP280;47260;48.274;19.814;2022-08-03T00:38:22;99573.13;;;19.17
61390;BMP280;47260;48.274;19.814;2022-08-03T00:40:49;99576.94;;;19.22
61390;BMP280;47260;48.274;19.814;2022-08-03T00:43:16;99574.59;;;19.18
61390;BMP280;47260;48.274;19.814;2022-08-03T00:45:43;99569.31;;;19.13
61390;BMP280;47260;48.274;19.814;2022-08-03T00:48:11;99571.31;;;19.05
61390;BMP280;47260;48.274;19.814;2022-08-03T00:50:39;99582.94;;;18.90
61390;BMP280;47260;48.274;19.814;2022-08-03T00:53:09;99577.88;;;18.71
61390;BMP280;47260;48.274;19.814;2022-08-03T00:55:38;99578.78;;;18.51
61390;BMP280;47260;48.274;19.814;2022-08-03T00:58:06;99578.78;;;18.51
61390;BMP280;47260;48.274;19.814;2022-08-03T01:00:34;99576.59;;;18.57
61390;BMP280;47260;48.274;19.814;2022-08-03T01:03:03;99567.75;;;18.64
61390;BMP280;47260;48.274;19.814;2022-08-03T01:05:35;99572.59;;;18.66
61390;BMP280;47260;48.274;19.814;2022-08-03T01:08:10;99577.16;;;18.63
61390;BMP280;47260;48.274;19.814;2022-08-03T01:10:45;99571.34;;;18.52
61390;BMP280;47260;48.274;19.814;2022-08-03T01:13:21;99573.69;;;18.55
61390;BMP280;47260;48.274;19.814;2022-08-03T01:15:55;99584.19;;;18.44
61390;BMP280;47260;48.274;19.814;2022-08-03T01:18:27;99581.63;;;18.38
61390;BMP280;47260;48.274;19.814;2022-08-03T01:20:57;99580.72;;;18.28
61390;BMP280;47260;48.274;19.814;2022-08-03T01:23:36;99579.63;;;18.31
61390;BMP280;47260;48.274;19.814;2022-08-03T01:26:12;99592.50;;;18.31
61390;BMP280;47260;48.274;19.814;2022-08-03T01:28:57;99582.53;;;18.33
61390;BMP280;47260;48.274;19.814;2022-08-03T01:31:30;99580.72;;;18.28
61390;BMP280;47260;48.274;19.814;2022-08-03T01:34:00;99579.25;;;18.27
61390;BMP280;47260;48.274;19.814;2022-08-03T01:36:31;99577.63;;;18.24
61390;BMP280;47260;48.274;19.814;2022-08-03T01:39:03;99583.75;;;18.25
61390;BMP280;47260;48.274;19.814;2022-08-03T01:41:36;99584.66;;;18.20
61390;BMP280;47260;48.274;19.814;2022-08-03T01:44:06;99581.41;;;18.21
61390;BMP280;47260;48.274;19.814;2022-08-03T01:46:36;99579.06;;;18.18
61390;BMP280;47260;48.274;19.814;2022-08-03T01:49:06;99571.75;;;18.05
61390;BMP280;47260;48.274;19.814;2022-08-03T01:51:36;99582.25;;;18.01
61390;BMP280;47260;48.274;19.814;2022-08-03T01:54:04;99578.06;;;17.93
61390;BMP280;47260;48.274;19.814;2022-08-03T01:56:33;99574.78;;;17.87
61390;BMP280;47260;48.274;19.814;2022-08-03T01:59:01;99577.47;;;17.79
61390;BMP280;47260;48.274;19.814;2022-08-03T02:01:28;99573.66;;;17.75
61390;BMP280;47260;48.274;19.814;2022-08-03T02:03:58;99576.38;;;17.75
61390;BMP280;47260;48.274;19.814;2022-08-03T02:06:26;99580.53;;;17.76
61390;BMP280;47260;48.274;19.814;2022-08-03T02:08:54;99575.84;;;17.76
61390;BMP280;47260;48.274;19.814;2022-08-03T02:11:22;99575.84;;;17.76
61390;BMP280;47260;48.274;19.814;2022-08-03T02:13:50;99574.75;;;17.79
61390;BMP280;47260;48.274;19.814;2022-08-03T02:16:18;99572.03;;;17.79
61390;BMP280;47260;48.274;19.814;2022-08-03T02:18:46;99574.38;;;17.75
61390;BMP280;47260;48.274;19.814;2022-08-03T02:21:15;99568.56;;;17.71
61390;BMP280;47260;48.274;19.814;2022-08-03T02:23:42;99566.59;;;17.72
61390;BMP280;47260;48.274;19.814;2022-08-03T02:26:14;99566.59;;;17.72
61390;BMP280;47260;48.274;19.814;2022-08-03T02:28:45;99564.03;;;17.74
61390;BMP280;47260;48.274;19.814;2022-08-03T02:31:17;99564.78;;;17.82
61390;BMP280;47260;48.274;19.814;2022-08-03T02:33:48;99569.53;;;17.81
61390;BMP280;47260;48.274;19.814;2022-08-03T02:36:19;99566.06;;;17.81
61390;BMP280;47260;48.274;19.814;2022-08-03T02:38:49;99563.34;;;17.81
61390;BMP280;47260;48.274;19.814;2022-08-03T02:41:21;99566.03;;;17.73
61390;BMP280;47260;48.274;19.814;2022-08-03T02:43:50;99562.56;;;17.73
61390;BMP280;47260;48.274;19.814;2022-08-03T02:46:19;99565.13;;;17.71
61390;BMP280;47260;48.274;19.814;2022-08-03T02:48:49;99562.06;;;17.74
61390;BMP280;47260;48.274;19.814;2022-08-03T02:51:19;99568.25;;;17.82
61390;BMP280;47260;48.274;19.814;2022-08-03T02:53:48;99570.28;;;17.89
61390;BMP280;47260;48.274;19.814;2022-08-03T02:56:17;99564.47;;;17.93
61390;BMP280;47260;48.274;19.814;2022-08-03T02:58:46;99567.03;;;17.98
61390;BMP280;47260;48.274;19.814;2022-08-03T03:01:14;99563.06;;;17.99
61390;BMP280;47260;48.274;19.814;2022-08-03T03:03:42;99566.69;;;18.02
61390;BMP280;47260;48.274;19.814;2022-08-03T03:06:09;99569.75;;;17.98
61390;BMP280;47260;48.274;19.814;2022-08-03T03:08:38;99573.19;;;17.99
61390;BMP280;47260;48.274;19.814;2022-08-03T03:11:06;99563.44;;;18.03
61390;BMP280;47260;48.274;19.814;2022-08-03T03:13:34;99571.06;;;18.12
61390;BMP280;47260;48.274;19.814;2022-08-03T03:16:03;99566.38;;;18.20
61390;BMP280;47260;48.274;19.814;2022-08-03T03:18:33;99568.19;;;18.25
61390;BMP280;47260;48.274;19.814;2022-08-03T03:21:02;99581.03;;;18.25
61390;BMP280;47260;48.274;19.814;2022-08-03T03:23:30;99575.09;;;18.26
61390;BMP280;47260;48.274;19.814;2022-08-03T03:25:58;99568.38;;;18.27
61390;BMP280;47260;48.274;19.814;2022-08-03T03:28:27;99575.09;;;18.34
61390;BMP280;47260;48.274;19.814;2022-08-03T03:30:54;99570.03;;;18.38
61390;BMP280;47260;48.274;19.814;2022-08-03T03:33:21;99576.03;;;18.36
61390;BMP280;47260;48.274;19.814;2022-08-03T03:35:48;99569.66;;;18.34
61390;BMP280;47260;48.274;19.814;2022-08-03T03:38:16;99576.53;;;18.35
61390;BMP280;47260;48.274;19.814;2022-08-03T03:40:43;99574.75;;;18.37
61390;BMP280;47260;48.274;19.814;2022-08-03T03:43:12;99574.56;;;18.35
61390;BMP280;47260;48.274;19.814;2022-08-03T03:45:40;99572.94;;;18.40
61390;BMP280;47260;48.274;19.814;2022-08-03T03:48:07;99578.22;;;18.45
61390;BMP280;47260;48.274;19.814;2022-08-03T03:50:35;99586.00;;;18.56
61390;BMP280;47260;48.274;19.814;2022-08-03T03:53:07;99587.84;;;18.76
61390;BMP280;47260;48.274;19.814;2022-08-03T03:55:34;99579.31;;;19.02
61390;BMP280;47260;48.274;19.814;2022-08-03T03:58:01;99587.09;;;19.29
61390;BMP280;47260;48.274;19.814;2022-08-03T04:00:30;99584.16;;;19.42
61390;BMP280;47260;48.274;19.814;2022-08-03T04:02:57;99576.66;;;19.57
61390;BMP280;47260;48.274;19.814;2022-08-03T04:05:24;99587.66;;;19.74
61390;BMP280;47260;48.274;19.814;2022-08-03T04:08:11;99587.25;;;19.85
61390;BMP280;47260;48.274;19.814;2022-08-03T04:11:08;99592.28;;;20.04
61390;BMP280;47260;48.274;19.814;2022-08-03T04:13:39;99596.31;;;20.27
61390;BMP280;47260;48.274;19.814;2022-08-03T04:16:11;99593.44;;;20.50
61390;BMP280;47260;48.274;19.814;2022-08-03T04:18:40;99606.69;;;20.78
61390;BMP280;47260;48.274;19.814;2022-08-03T04:21:09;99612.84;;;21.03
61390;BMP280;47260;48.274;19.814;2022-08-03T04:23:39;99610.66;;;21.02
61390;BMP280;47260;48.274;19.814;2022-08-03T04:26:09;99621.16;;;21.05
61390;BMP280;47260;48.274;19.814;2022-08-03T04:28:38;99620.69;;;20.99
61390;BMP280;47260;48.274;19.814;2022-08-03T04:31:07;99627.25;;;20.96
61390;BMP280;47260;48.274;19.814;2022-08-03T04:33:37;99621.44;;;21.34
61390;BMP280;47260;48.274;19.814;2022-08-03T04:36:06;99625.06;;;21.36
61390;BMP280;47260;48.274;19.814;2022-08-03T04:38:36;99626.97;;;21.77
61390;BMP280;47260;48.274;19.814;2022-08-03T04:41:06;99627.50;;;22.29
61390;BMP280;47260;48.274;19.814;2022-08-03T04:43:34;99622.59;;;22.64
61390;BMP280;47260;48.274;19.814;2022-08-03T04:46:04;99631.22;;;23.25
61390;BMP280;47260;48.274;19.814;2022-08-03T04:48:34;99633.75;;;23.80
61390;BMP280;47260;48.274;19.814;2022-08-03T04:51:01;99627.75;;;24.12
61390;BMP280;47260;48.274;19.814;2022-08-03T04:53:29;99629.66;;;24.40
61390;BMP280;47260;48.274;19.814;2022-08-03T04:56:03;99634.31;;;24.37
61390;BMP280;47260;48.274;19.814;2022-08-03T04:58:29;99643.25;;;24.90
61390;BMP280;47260;48.274;19.814;2022-08-03T05:00:56;99647.50;;;25.02
61390;BMP280;47260;48.274;19.814;2022-08-03T05:03:23;99643.25;;;25.43
61390;BMP280;47260;48.274;19.814;2022-08-03T05:05:52;99638.78;;;25.27
61390;BMP280;47260;48.274;19.814;2022-08-03T05:08:19;99645.22;;;25.75
61390;BMP280;47260;48.274;19.814;2022-08-03T05:10:46;99642.13;;;25.69
61390;BMP280;47260;48.274;19.814;2022-08-03T05:13:13;99638.94;;;25.40
61390;BMP280;47260;48.274;19.814;2022-08-03T05:15:40;99635.94;;;25.15
61390;BMP280;47260;48.274;19.814;2022-08-03T05:18:07;99641.34;;;24.92
61390;BMP280;47260;48.274;19.814;2022-08-03T05:20:34;99652.06;;;24.67
61390;BMP280;47260;48.274;19.814;2022-08-03T05:23:02;99643.53;;;24.73
61390;BMP280;47260;48.274;19.814;2022-08-03T05:25:29;99641.72;;;25.52
61390;BMP280;47260;48.274;19.814;2022-08-03T05:27:56;99651.63;;;26.24
61390;BMP280;47260;48.274;19.814;2022-08-03T05:30:23;99655.41;;;26.76
61390;BMP280;47260;48.274;19.814;2022-08-03T05:32:49;99646.13;;;27.20
61390;BMP280;47260;48.274;19.814;2022-08-03T05:35:17;99653.63;;;27.56
61390;BMP280;47260;48.274;19.814;2022-08-03T05:37:44;99648.38;;;28.01
61390;BMP280;47260;48.274;19.814;2022-08-03T05:40:13;99651.03;;;28.12
61390;BMP280;47260;48.274;19.814;2022-08-03T05:42:40;99656.13;;;28.04
61390;BMP280;47260;48.274;19.814;2022-08-03T05:45:07;99656.50;;;28.80
61390;BMP280;47260;48.274;19.814;2022-08-03T05:47:40;99658.56;;;29.08
61390;BMP280;47260;48.274;19.814;2022-08-03T05:50:08;99659.59;;;28.59
61390;BMP280;47260;48.274;19.814;2022-08-03T05:52:35;99663.41;;;29.23
61390;BMP280;47260;48.274;19.814;2022-08-03T05:55:03;99668.00;;;29.19
61390;BMP280;47260;48.274;19.814;2022-08-03T05:57:31;99668.00;;;29.48
61390;BMP280;47260;48.274;19.814;2022-08-03T05:59:58;99664.97;;;29.57
61390;BMP280;47260;48.274;19.814;2022-08-03T06:02:25;99668.34;;;29.87
61390;BMP280;47260;48.274;19.814;2022-08-03T06:04:51;99662.28;;;29.59
61390;BMP280;47260;48.274;19.814;2022-08-03T06:07:18;99674.22;;;29.64
61390;BMP280;47260;48.274;19.814;2022-08-03T06:09:45;99669.13;;;30.38
61390;BMP280;47260;48.274;19.814;2022-08-03T06:12:12;99672.84;;;30.27
61390;BMP280;47260;48.274;19.814;2022-08-03T06:14:40;99669.81;;;30.21
61390;BMP280;47260;48.274;19.814;2022-08-03T06:17:07;99663.63;;;30.73
61390;BMP280;47260;48.274;19.814;2022-08-03T06:19:33;99666.81;;;31.00
61390;BMP280;47260;48.274;19.814;2022-08-03T06:22:00;99669.22;;;31.84
61390;BMP280;47260;48.274;19.814;2022-08-03T06:24:27;99672.69;;;32.66
61390;BMP280;47260;48.274;19.814;2022-08-03T06:26:54;99660.06;;;31.99
61390;BMP280;47260;48.274;19.814;2022-08-03T06:29:21;99666.34;;;32.64
61390;BMP280;47260;48.274;19.814;2022-08-03T06:31:49;99670.16;;;32.53
61390;BMP280;47260;48.274;19.814;2022-08-03T06:34:15;99665.25;;;31.69
61390;BMP280;47260;48.274;19.814;2022-08-03T06:36:42;99669.25;;;32.25
61390;BMP280;47260;48.274;19.814;2022-08-03T06:39:09;99665.88;;;33.42
61390;BMP280;47260;48.274;19.814;2022-08-03T06:41:37;99668.03;;;32.96
61390;BMP280;47260;48.274;19.814;2022-08-03T06:44:07;99669.88;;;32.88
61390;BMP280;47260;48.274;19.814;2022-08-03T06:46:33;99670.44;;;33.55
61390;BMP280;47260;48.274;19.814;2022-08-03T06:49:02;99680.09;;;33.52
61390;BMP280;47260;48.274;19.814;2022-08-03T06:51:28;99676.31;;;33.41
61390;BMP280;47260;48.274;19.814;2022-08-03T06:53:55;99667.75;;;34.71
61390;BMP280;47260;48.274;19.814;2022-08-03T06:56:22;99678.63;;;34.57
61390;BMP280;47260;48.274;19.814;2022-08-03T06:58:49;99676.38;;;35.14
61390;BMP280;47260;48.274;19.814;2022-08-03T07:01:15;99672.53;;;35.31
61390;BMP280;47260;48.274;19.814;2022-08-03T07:03:42;99670.97;;;35.99
61390;BMP280;47260;48.274;19.814;2022-08-03T07:06:10;99674.94;;;35.47
61390;BMP280;47260;48.274;19.814;2022-08-03T07:08:37;99674.09;;;35.78
61390;BMP280;47260;48.274;19.814;2022-08-03T07:11:04;99668.00;;;36.84
61390;BMP280;47260;48.274;19.814;2022-08-03T07:13:32;99673.03;;;35.97
61390;BMP280;47260;48.274;19.814;2022-08-03T07:15:59;99670.84;;;35.52
61390;BMP280;47260;48.274;19.814;2022-08-03T07:18:25;99670.75;;;35.48
61390;BMP280;47260;48.274;19.814;2022-08-03T07:20:52;99677.19;;;35.56
61390;BMP280;47260;48.274;19.814;2022-08-03T07:23:20;99674.19;;;34.77
61390;BMP280;47260;48.274;19.814;2022-08-03T07:25:47;99672.59;;;35.00
61390;BMP280;47260;48.274;19.814;2022-08-03T07:28:15;99677.97;;;34.90
61390;BMP280;47260;48.274;19.814;2022-08-03T07:30:42;99672.56;;;34.09
61390;BMP280;47260;48.274;19.814;2022-08-03T07:33:09;99679.91;;;34.52
61390;BMP280;47260;48.274;19.814;2022-08-03T07:35:35;99674.16;;;35.09
61390;BMP280;47260;48.274;19.814;2022-08-03T07:38:02;99679.19;;;33.20
61390;BMP280;47260;48.274;19.814;2022-08-03T07:40:30;99674.84;;;32.05
61390;BMP280;47260;48.274;19.814;2022-08-03T07:42:57;99678.03;;;32.82
61390;BMP280;47260;48.274;19.814;2022-08-03T07:45:24;99673.50;;;32.06
61390;BMP280;47260;48.274;19.814;2022-08-03T07:47:51;99666.97;;;32.84
61390;BMP280;47260;48.274;19.814;2022-08-03T07:50:18;99667.16;;;31.45
61390;BMP280;47260;48.274;19.814;2022-08-03T07:52:44;99680.47;;;32.72
61390;BMP280;47260;48.274;19.814;2022-08-03T07:55:15;99664.06;;;33.50
61390;BMP280;47260;48.274;19.814;2022-08-03T07:57:43;99670.16;;;32.53
61390;BMP280;47260;48.274;19.814;2022-08-03T08:00:14;99674.25;;;31.70
61390;BMP280;47260;48.274;19.814;2022-08-03T08:02:41;99669.81;;;30.54
61390;BMP280;47260;48.274;19.814;2022-08-03T08:05:08;99668.53;;;29.91
61390;BMP280;47260;48.274;19.814;2022-08-03T08:07:37;99677.38;;;28.83
61390;BMP280;47260;48.274;19.814;2022-08-03T08:10:05;99676.94;;;29.77
61390;BMP280;47260;48.274;19.814;2022-08-03T08:12:32;99674.63;;;29.12
61390;BMP280;47260;48.274;19.814;2022-08-03T08:15:00;99664.06;;;29.53
61390;BMP280;47260;48.274;19.814;2022-08-03T08:17:27;99665.84;;;29.62
61390;BMP280;47260;48.274;19.814;2022-08-03T08:19:53;99679.88;;;29.97
61390;BMP280;47260;48.274;19.814;2022-08-03T08:22:20;99666.53;;;29.47
61390;BMP280;47260;48.274;19.814;2022-08-03T08:24:47;99676.00;;;28.84
61390;BMP280;47260;48.274;19.814;2022-08-03T08:27:14;99681.53;;;28.84
61390;BMP280;47260;48.274;19.814;2022-08-03T08:29:41;99668.75;;;28.90
61390;BMP280;47260;48.274;19.814;2022-08-03T08:32:09;99671.63;;;28.79
61390;BMP280;47260;48.274;19.814;2022-08-03T08:34:37;99669.38;;;28.33
61390;BMP280;47260;48.274;19.814;2022-08-03T08:37:04;99669.63;;;28.95
61390;BMP280;47260;48.274;19.814;2022-08-03T08:39:31;99670.19;;;28.91
61390;BMP280;47260;48.274;19.814;2022-08-03T08:41:57;99670.00;;;28.74
61390;BMP280;47260;48.274;19.814;2022-08-03T08:44:24;99670.13;;;29.05
61390;BMP280;47260;48.274;19.814;2022-08-03T08:46:52;99658.31;;;29.18
61390;BMP280;47260;48.274;19.814;2022-08-03T08:49:22;99656.09;;;29.61
61390;BMP280;47260;48.274;19.814;2022-08-03T08:51:50;99653.72;;;30.00
61390;BMP280;47260;48.274;19.814;2022-08-03T08:54:19;99645.16;;;30.27
61390;BMP280;47260;48.274;19.814;2022-08-03T08:56:47;99654.22;;;29.81
61390;BMP280;47260;48.274;19.814;2022-08-03T08:59:16;99651.88;;;29.13
61390;BMP280;47260;48.274;19.814;2022-08-03T09:01:43;99655.31;;;29.43
61390;BMP280;47260;48.274;19.814;2022-08-03T09:04:10;99653.72;;;29.69
61390;BMP280;47260;48.274;19.814;2022-08-03T09:06:38;99646.72;;;30.14
61390;BMP280;47260;48.274;19.814;2022-08-03T09:09:05;99645.25;;;29.49
61390;BMP280;47260;48.274;19.814;2022-08-03T09:11:33;99642.47;;;29.80
61390;BMP280;47260;48.274;19.814;2022-08-03T09:14:00;99644.16;;;29.87
61390;BMP280;47260;48.274;19.814;2022-08-03T09:16:27;99643.03;;;30.10
61390;BMP280;47260;48.274;19.814;2022-08-03T09:18:54;99647.56;;;30.19
61390;BMP280;47260;48.274;19.814;2022-08-03T09:21:22;99643.38;;;30.68
61390;BMP280;47260;48.274;19.814;2022-08-03T09:23:52;99650.94;;;30.33
61390;BMP280;47260;48.274;19.814;2022-08-03T09:26:20;99649.16;;;30.24
61390;BMP280;47260;48.274;19.814;2022-08-03T09:28:53;99643.94;;;30.82
61390;BMP280;47260;48.274;19.814;2022-08-03T09:31:28;99641.09;;;31.35
61390;BMP280;47260;48.274;19.814;2022-08-03T09:33:55;99637.13;;;31.22
61390;BMP280;47260;48.274;19.814;2022-08-03T09:36:39;99630.56;;;31.51
61390;BMP280;47260;48.274;19.814;2022-08-03T09:39:10;99634.00;;;31.49
61390;BMP280;47260;48.274;19.814;2022-08-03T09:41:38;99631.75;;;31.85
61390;BMP280;47260;48.274;19.814;2022-08-03T09:44:05;99633.25;;;31.88
61390;BMP280;47260;48.274;19.814;2022-08-03T09:46:46;99632.94;;;32.19
61390;BMP280;47260;48.274;19.814;2022-08-03T09:49:13;99629.16;;;32.32
61390;BMP280;47260;48.274;19.814;2022-08-03T09:51:40;99625.09;;;32.13
61390;BMP280;47260;48.274;19.814;2022-08-03T09:54:09;99618.00;;;31.89
61390;BMP280;47260;48.274;19.814;2022-08-03T09:56:40;99623.03;;;32.14
61390;BMP280;47260;48.274;19.814;2022-08-03T09:59:07;99617.59;;;32.18
61390;BMP280;47260;48.274;19.814;2022-08-03T10:01:35;99623.41;;;32.26
61390;BMP280;47260;48.274;19.814;2022-08-03T10:04:03;99619.28;;;32.27
61390;BMP280;47260;48.274;19.814;2022-08-03T10:06:30;99616.75;;;32.35
61390;BMP280;47260;48.274;19.814;2022-08-03T10:09:05;99618.25;;;32.38
61390;BMP280;47260;48.274;19.814;2022-08-03T10:11:34;99613.34;;;32.36
61390;BMP280;47260;48.274;19.814;2022-08-03T10:14:03;99610.75;;;31.41
61390;BMP280;47260;48.274;19.814;2022-08-03T10:16:33;99613.19;;;31.31
61390;BMP280;47260;48.274;19.814;2022-08-03T10:19:00;99605.78;;;31.57
61390;BMP280;47260;48.274;19.814;2022-08-03T10:21:32;99599.00;;;31.23
61390;BMP280;47260;48.274;19.814;2022-08-03T10:24:05;99603.34;;;30.91
61390;BMP280;47260;48.274;19.814;2022-08-03T10:26:35;99600.22;;;31.18
61390;BMP280;47260;48.274;19.814;2022-08-03T10:29:05;99599.53;;;31.56
61390;BMP280;47260;48.274;19.814;2022-08-03T10:31:38;99595.31;;;31.75
61390;BMP280;47260;48.274;19.814;2022-08-03T10:34:10;99594.53;;;31.72
61390;BMP280;47260;48.274;19.814;2022-08-03T10:36:41;99588.53;;;31.80
61390;BMP280;47260;48.274;19.814;2022-08-03T10:39:09;99594.94;;;32.04
61390;BMP280;47260;48.274;19.814;2022-08-03T10:41:40;99591.38;;;32.01
61390;BMP280;47260;48.274;19.814;2022-08-03T10:44:10;99592.31;;;32.10
61390;BMP280;47260;48.274;19.814;2022-08-03T10:46:40;99583.00;;;31.80
61390;BMP280;47260;48.274;19.814;2022-08-03T10:49:09;99585.00;;;31.77
61390;BMP280;47260;48.274;19.814;2022-08-03T10:51:37;99588.03;;;32.07
61390;BMP280;47260;48.274;19.814;2022-08-03T10:54:04;99585.41;;;32.32
61390;BMP280;47260;48.274;19.814;2022-08-03T10:56:40;99579.88;;;32.11
61390;BMP280;47260;48.274;19.814;2022-08-03T10:59:58;99574.94;;;31.88
61390;BMP280;47260;48.274;19.814;2022-08-03T11:05:44;99561.22;;;31.72
61390;BMP280;47260;48.274;19.814;2022-08-03T11:08:25;99566.78;;;31.53
61390;BMP280;47260;48.274;19.814;2022-08-03T11:10:54;99563.59;;;31.82
61390;BMP280;47260;48.274;19.814;2022-08-03T11:13:24;99563.09;;;31.46
61390;BMP280;47260;48.274;19.814;2022-08-03T11:15:54;99561.22;;;31.14
61390;BMP280;47260;48.274;19.814;2022-08-03T11:18:22;99560.06;;;31.60
61390;BMP280;47260;48.274;19.814;2022-08-03T11:20:50;99552.34;;;31.56
61390;BMP280;47260;48.274;19.814;2022-08-03T11:23:39;99555.97;;;31.61
61390;BMP280;47260;48.274;19.814;2022-08-03T11:26:13;99550.00;;;31.49
61390;BMP280;47260;48.274;19.814;2022-08-03T11:28:42;99551.41;;;31.69
61390;BMP280;47260;48.274;19.814;2022-08-03T11:31:43;99548.97;;;31.60
61390;BMP280;47260;48.274;19.814;2022-08-03T11:34:15;99545.84;;;31.50
61390;BMP280;47260;48.274;19.814;2022-08-03T11:37:19;99541.25;;;31.37
61390;BMP280;47260;48.274;19.814;2022-08-03T11:39:49;99543.84;;;30.94
61390;BMP280;47260;48.274;19.814;2022-08-03T11:42:39;99546.22;;;31.01
61390;BMP280;47260;48.274;19.814;2022-08-03T11:45:10;99536.34;;;31.16
61390;BMP280;47260;48.274;19.814;2022-08-03T11:47:40;99527.38;;;31.37
61390;BMP280;47260;48.274;19.814;2022-08-03T11:50:08;99534.06;;;31.49
61390;BMP280;47260;48.274;19.814;2022-08-03T11:52:40;99525.00;;;31.49
61390;BMP280;47260;48.274;19.814;2022-08-03T11:55:08;99529.47;;;31.58
61390;BMP280;47260;48.274;19.814;2022-08-03T11:57:35;99525.69;;;31.69
61390;BMP280;47260;48.274;19.814;2022-08-03T12:00:16;99521.84;;;31.37
61390;BMP280;47260;48.274;19.814;2022-08-03T12:02:56;99517.22;;;31.24
61390;BMP280;47260;48.274;19.814;2022-08-03T12:08:16;99504.31;;;30.39
61390;BMP280;47260;48.274;19.814;2022-08-03T12:10:49;99505.06;;;30.39
61390;BMP280;47260;48.274;19.814;2022-08-03T12:13:17;99501.44;;;30.72
61390;BMP280;47260;48.274;19.814;2022-08-03T12:15:51;99505.81;;;31.16
61390;BMP280;47260;48.274;19.814;2022-08-03T12:18:19;99501.38;;;31.48
61390;BMP280;47260;48.274;19.814;2022-08-03T12:20:47;99506.81;;;31.65
61390;BMP280;47260;48.274;19.814;2022-08-03T12:23:15;99502.72;;;31.66
61390;BMP280;47260;48.274;19.814;2022-08-03T12:25:42;99500.09;;;31.51
61390;BMP280;47260;48.274;19.814;2022-08-03T12:28:15;99504.72;;;31.64
61390;BMP280;47260;48.274;19.814;2022-08-03T12:30:45;99501.03;;;31.79
61390;BMP280;47260;48.274;19.814;2022-08-03T12:33:20;99494.72;;;31.76
61390;BMP280;47260;48.274;19.814;2022-08-03T12:35:48;99496.94;;;31.60
61390;BMP280;47260;48.274;19.814;2022-08-03T12:38:20;99494.22;;;31.62
61390;BMP280;47260;48.274;19.814;2022-08-03T12:40:58;99493.06;;;31.48
61390;BMP280;47260;48.274;19.814;2022-08-03T12:43:25;99492.19;;;31.43
61390;BMP280;47260;48.274;19.814;2022-08-03T12:46:09;99493.84;;;31.31
61390;BMP280;47260;48.274;19.814;2022-08-03T12:48:57;99484.19;;;31.12
61390;BMP280;47260;48.274;19.814;2022-08-03T12:51:23;99492.16;;;31.02
61390;BMP280;47260;48.274;19.814;2022-08-03T12:53:52;99493.06;;;30.89
61390;BMP280;47260;48.274;19.814;2022-08-03T12:56:19;99491.66;;;30.88
61390;BMP280;47260;48.274;19.814;2022-08-03T12:58:46;99480.25;;;30.43
61390;BMP280;47260;48.274;19.814;2022-08-03T13:01:15;99482.81;;;30.74
61390;BMP280;47260;48.274;19.814;2022-08-03T13:03:45;99475.31;;;30.59
61390;BMP280;47260;48.274;19.814;2022-08-03T13:06:12;99477.38;;;30.59
61390;BMP280;47260;48.274;19.814;2022-08-03T13:08:39;99473.84;;;30.39
61390;BMP280;47260;48.274;19.814;2022-08-03T13:11:20;99471.31;;;30.45
61390;BMP280;47260;48.274;19.814;2022-08-03T13:13:48;99471.44;;;30.66
61390;BMP280;47260;48.274;19.814;2022-08-03T13:16:14;99467.38;;;30.69
61390;BMP280;47260;48.274;19.814;2022-08-03T13:18:41;99470.47;;;30.77
61390;BMP280;47260;48.274;19.814;2022-08-03T13:21:13;99465.59;;;30.78
61390;BMP280;47260;48.274;19.814;2022-08-03T13:23:40;99463.81;;;30.86
61390;BMP280;47260;48.274;19.814;2022-08-03T13:26:07;99453.09;;;30.77
61390;BMP280;47260;48.274;19.814;2022-08-03T13:28:33;99467.75;;;30.99
61390;BMP280;47260;48.274;19.814;2022-08-03T13:31:00;99457.06;;;31.11
61390;BMP280;47260;48.274;19.814;2022-08-03T13:33:27;99457.22;;;31.34
61390;BMP280;47260;48.274;19.814;2022-08-03T13:35:54;99457.91;;;31.35
61390;BMP280;47260;48.274;19.814;2022-08-03T13:38:22;99458.50;;;31.31
61390;BMP280;47260;48.274;19.814;2022-08-03T13:40:50;99456.66;;;31.18
61390;BMP280;47260;48.274;19.814;2022-08-03T13:43:18;99453.91;;;31.40
61390;BMP280;47260;48.274;19.814;2022-08-03T13:45:44;99449.19;;;31.64
61390;BMP280;47260;48.274;19.814;2022-08-03T13:48:11;99456.47;;;31.75
61390;BMP280;47260;48.274;19.814;2022-08-03T13:50:38;99450.31;;;31.78
61390;BMP280;47260;48.274;19.814;2022-08-03T13:53:05;99459.56;;;31.85
61390;BMP280;47260;48.274;19.814;2022-08-03T13:55:33;99445.81;;;31.89
61390;BMP280;47260;48.274;19.814;2022-08-03T13:58:00;99446.97;;;31.82
61390;BMP280;47260;48.274;19.814;2022-08-03T14:00:27;99439.28;;;31.80
61390;BMP280;47260;48.274;19.814;2022-08-03T14:02:54;99446.28;;;31.81
61390;BMP280;47260;48.274;19.814;2022-08-03T14:05:21;99443.53;;;31.83
61390;BMP280;47260;48.274;19.814;2022-08-03T14:07:48;99445.03;;;31.86
61390;BMP280;47260;48.274;19.814;2022-08-03T14:10:15;99449.03;;;31.81
61390;BMP280;47260;48.274;19.814;2022-08-03T14:12:43;99441.16;;;31.74
61390;BMP280;47260;48.274;19.814;2022-08-03T14:15:10;99439.88;;;31.55